sensor_id;sensor_type;location;lat;lon;timestamp;P1;durP1;ratioP1;P2;durP2;ratioP2
1577;SDS011;57623;53.608;10.004;2023-03-29T00:00:40;9.83;;;5.67;;
1577;SDS011;57623;53.608;10.004;2023-03-29T00:03:09;5.50;;;4.90;;
1577;SDS011;57623;53.608;10.004;2023-03-29T00:05:39;6.40;;;4.90;;
1577;SDS011;57623;53.608;10.004;2023-03-29T00:08:07;6.90;;;4.73;;
1577;SDS011;57623;53.608;10.004;2023-03-29T00:10:39;6.70;;;5.17;;
1577;SDS011;57623;53.608;10.004;2023-03-29T00:13:08;6.27;;;4.60;;
1577;SDS011;57623;53.608;10.004;2023-03-29T00:15:36;6.10;;;4.70;;
1577;SDS011;57623;53.608;10.004;2023-03-29T00:18:04;5.60;;;4.70;;
1577;SDS011;57623;53.608;10.004;2023-03-29T00:20:33;5.27;;;4.77;;
1577;SDS011;57623;53.608;10.004;2023-03-29T00:23:01;7.73;;;5.07;;
1577;SDS011;57623;53.608;10.004;2023-03-29T00:25:29;5.83;;;4.77;;
1577;SDS011;57623;53.608;10.004;2023-03-29T00:27:57;6.27;;;4.97;;
1577;SDS011;57623;53.608;10.004;2023-03-29T00:30:25;6.53;;;5.00;;
1577;SDS011;57623;53.608;10.004;2023-03-29T00:32:53;5.53;;;5.03;;
1577;SDS011;57623;53.608;10.004;2023-03-29T00:35:21;6.03;;;5.00;;
1577;SDS011;57623;53.608;10.004;2023-03-29T00:37:51;4.90;;;4.17;;
1577;SDS011;57623;53.608;10.004;2023-03-29T00:40:19;6.03;;;4.97;;
1577;SDS011;57623;53.608;10.004;2023-03-29T00:42:47;6.37;;;5.77;;
1577;SDS011;57623;53.608;10.004;2023-03-29T00:45:18;6.60;;;5.40;;
1577;SDS011;57623;53.608;10.004;2023-03-29T00:47:49;7.17;;;4.80;;
1577;SDS011;57623;53.608;10.004;2023-03-29T00:50:19;5.77;;;5.10;;
1577;SDS011;57623;53.608;10.004;2023-03-29T00:52:54;5.60;;;4.53;;
1577;SDS011;57623;53.608;10.004;2023-03-29T00:55:26;5.97;;;5.10;;
1577;SDS011;57623;53.608;10.004;2023-03-29T00:57:58;5.40;;;4.67;;
1577;SDS011;57623;53.608;10.004;2023-03-29T01:00:28;6.60;;;5.90;;
1577;SDS011;57623;53.608;10.004;2023-03-29T01:03:00;6.83;;;5.70;;
1577;SDS011;57623;53.608;10.004;2023-03-29T01:05:32;5.67;;;5.03;;
1577;SDS011;57623;53.608;10.004;2023-03-29T01:08:08;6.57;;;5.27;;
1577;SDS011;57623;53.608;10.004;2023-03-29T01:10:43;7.87;;;4.90;;
1577;SDS011;57623;53.608;10.004;2023-03-29T01:13:17;4.73;;;4.33;;
1577;SDS011;57623;53.608;10.004;2023-03-29T01:15:47;5.50;;;4.47;;
1577;SDS011;57623;53.608;10.004;2023-03-29T01:18:16;5.07;;;4.57;;
1577;SDS011;57623;53.608;10.004;2023-03-29T01:20:48;4.63;;;4.30;;
1577;SDS011;57623;53.608;10.004;2023-03-29T01:23:35;5.53;;;5.00;;
1577;SDS011;57623;53.608;10.004;2023-03-29T01:26:13;4.90;;;4.40;;
1577;SDS011;57623;53.608;10.004;2023-03-29T01:28:49;6.60;;;5.10;;
1577;SDS011;57623;53.608;10.004;2023-03-29T01:31:22;5.60;;;4.40;;
1577;SDS011;57623;53.608;10.004;2023-03-29T01:33:54;7.07;;;4.50;;
1577;SDS011;57623;53.608;10.004;2023-03-29T01:36:28;5.07;;;4.67;;
1577;SDS011;57623;53.608;10.004;2023-03-29T01:39:02;5.70;;;4.67;;
1577;SDS011;57623;53.608;10.004;2023-03-29T01:41:33;7.90;;;4.70;;
1577;SDS011;57623;53.608;10.004;2023-03-29T01:44:09;5.53;;;4.60;;
1577;SDS011;57623;53.608;10.004;2023-03-29T01:46:44;5.60;;;5.07;;
1577;SDS011;57623;53.608;10.004;2023-03-29T01:49:15;7.03;;;5.13;;
1577;SDS011;57623;53.608;10.004;2023-03-29T01:51:50;5.60;;;5.10;;
1577;SDS011;57623;53.608;10.004;2023-03-29T01:54:25;6.50;;;4.70;;
1577;SDS011;57623;53.608;10.004;2023-03-29T01:56:57;5.53;;;4.97;;
1577;SDS011;57623;53.608;10.004;2023-03-29T01:59:31;6.10;;;4.10;;
1577;SDS011;57623;53.608;10.004;2023-03-29T02:02:03;7.17;;;4.53;;
1577;SDS011;57623;53.608;10.004;2023-03-29T02:04:37;4.87;;;4.33;;
1577;SDS011;57623;53.608;10.004;2023-03-29T02:07:10;5.83;;;5.20;;
1577;SDS011;57623;53.608;10.004;2023-03-29T02:09:39;6.20;;;5.70;;
1577;SDS011;57623;53.608;10.004;2023-03-29T02:12:08;5.90;;;5.40;;
1577;SDS011;57623;53.608;10.004;2023-03-29T02:14:39;8.40;;;5.67;;
1577;SDS011;57623;53.608;10.004;2023-03-29T02:17:13;5.07;;;4.67;;
1577;SDS011;57623;53.608;10.004;2023-03-29T02:19:43;6.80;;;4.90;;
1577;SDS011;57623;53.608;10.004;2023-03-29T02:22:17;7.27;;;4.60;;
1577;SDS011;57623;53.608;10.004;2023-03-29T02:24:49;4.93;;;4.40;;
1577;SDS011;57623;53.608;10.004;2023-03-29T02:27:21;6.57;;;4.63;;
1577;SDS011;57623;53.608;10.004;2023-03-29T02:29:51;6.00;;;4.30;;
1577;SDS011;57623;53.608;10.004;2023-03-29T02:32:19;6.87;;;4.23;;
1577;SDS011;57623;53.608;10.004;2023-03-29T02:34:52;6.57;;;4.80;;
1577;SDS011;57623;53.608;10.004;2023-03-29T02:37:24;5.20;;;4.60;;
1577;SDS011;57623;53.608;10.004;2023-03-29T02:39:55;5.70;;;5.20;;
1577;SDS011;57623;53.608;10.004;2023-03-29T02:42:25;4.40;;;4.00;;
1577;SDS011;57623;53.608;10.004;2023-03-29T02:44:56;5.30;;;4.30;;
1577;SDS011;57623;53.608;10.004;2023-03-29T02:47:27;7.53;;;4.50;;
1577;SDS011;57623;53.608;10.004;2023-03-29T02:49:58;6.03;;;4.70;;
1577;SDS011;57623;53.608;10.004;2023-03-29T02:52:27;6.50;;;4.50;;
1577;SDS011;57623;53.608;10.004;2023-03-29T02:55:00;4.90;;;3.90;;
1577;SDS011;57623;53.608;10.004;2023-03-29T02:57:31;7.13;;;3.93;;
1577;SDS011;57623;53.608;10.004;2023-03-29T03:00:02;7.73;;;4.30;;
1577;SDS011;57623;53.608;10.004;2023-03-29T03:02:35;5.63;;;4.40;;
1577;SDS011;57623;53.608;10.004;2023-03-29T03:05:04;5.53;;;3.73;;
1577;SDS011;57623;53.608;10.004;2023-03-29T03:07:33;4.67;;;3.90;;
1577;SDS011;57623;53.608;10.004;2023-03-29T03:10:01;4.17;;;3.50;;
1577;SDS011;57623;53.608;10.004;2023-03-29T03:12:30;5.03;;;4.03;;
1577;SDS011;57623;53.608;10.004;2023-03-29T03:14:58;5.53;;;3.93;;
1577;SDS011;57623;53.608;10.004;2023-03-29T03:17:27;4.13;;;3.60;;
1577;SDS011;57623;53.608;10.004;2023-03-29T03:19:55;6.03;;;4.33;;
1577;SDS011;57623;53.608;10.004;2023-03-29T03:22:23;6.40;;;3.80;;
1577;SDS011;57623;53.608;10.004;2023-03-29T03:24:51;5.40;;;4.00;;
1577;SDS011;57623;53.608;10.004;2023-03-29T03:27:19;4.10;;;3.80;;
1577;SDS011;57623;53.608;10.004;2023-03-29T03:29:47;16.60;;;4.80;;
1577;SDS011;57623;53.608;10.004;2023-03-29T03:32:15;6.37;;;3.97;;
1577;SDS011;57623;53.608;10.004;2023-03-29T03:34:45;4.63;;;4.23;;
1577;SDS011;57623;53.608;10.004;2023-03-29T03:37:13;6.13;;;3.90;;
1577;SDS011;57623;53.608;10.004;2023-03-29T03:39:41;5.70;;;3.80;;
1577;SDS011;57623;53.608;10.004;2023-03-29T03:42:09;7.27;;;4.33;;
1577;SDS011;57623;53.608;10.004;2023-03-29T03:44:37;6.40;;;4.30;;
1577;SDS011;57623;53.608;10.004;2023-03-29T03:47:05;7.53;;;4.83;;
1577;SDS011;57623;53.608;10.004;2023-03-29T03:49:33;4.30;;;4.00;;
1577;SDS011;57623;53.608;10.004;2023-03-29T03:52:03;5.03;;;4.33;;
1577;SDS011;57623;53.608;10.004;2023-03-29T03:54:31;6.07;;;4.20;;
1577;SDS011;57623;53.608;10.004;2023-03-29T03:56:59;6.13;;;4.10;;
1577;SDS011;57623;53.608;10.004;2023-03-29T03:59:27;6.20;;;4.40;;
1577;SDS011;57623;53.608;10.004;2023-03-29T04:01:55;6.00;;;4.77;;
1577;SDS011;57623;53.608;10.004;2023-03-29T04:04:23;5.83;;;4.40;;
1577;SDS011;57623;53.608;10.004;2023-03-29T04:06:52;6.27;;;4.63;;
1577;SDS011;57623;53.608;10.004;2023-03-29T04:09:29;5.33;;;4.20;;
1577;SDS011;57623;53.608;10.004;2023-03-29T04:11:58;5.17;;;4.30;;
1577;SDS011;57623;53.608;10.004;2023-03-29T04:14:27;5.07;;;4.30;;
1577;SDS011;57623;53.608;10.004;2023-03-29T04:16:57;7.47;;;4.10;;
1577;SDS011;57623;53.608;10.004;2023-03-29T04:19:25;4.80;;;3.80;;
1577;SDS011;57623;53.608;10.004;2023-03-29T04:21:53;5.73;;;4.03;;
1577;SDS011;57623;53.608;10.004;2023-03-29T04:24:21;6.23;;;4.40;;
1577;SDS011;57623;53.608;10.004;2023-03-29T04:26:51;5.73;;;4.93;;
1577;SDS011;57623;53.608;10.004;2023-03-29T04:29:19;9.13;;;5.07;;
1577;SDS011;57623;53.608;10.004;2023-03-29T04:31:47;7.50;;;5.47;;
1577;SDS011;57623;53.608;10.004;2023-03-29T04:34:15;6.40;;;5.80;;
1577;SDS011;57623;53.608;10.004;2023-03-29T04:36:43;9.00;;;5.10;;
1577;SDS011;57623;53.608;10.004;2023-03-29T04:39:11;5.43;;;4.93;;
1577;SDS011;57623;53.608;10.004;2023-03-29T04:41:39;5.90;;;5.00;;
1577;SDS011;57623;53.608;10.004;2023-03-29T04:44:09;5.23;;;4.73;;
1577;SDS011;57623;53.608;10.004;2023-03-29T04:46:37;7.00;;;4.93;;
1577;SDS011;57623;53.608;10.004;2023-03-29T04:49:05;5.93;;;5.03;;
1577;SDS011;57623;53.608;10.004;2023-03-29T04:51:33;8.13;;;4.70;;
1577;SDS011;57623;53.608;10.004;2023-03-29T04:54:01;6.83;;;5.50;;
1577;SDS011;57623;53.608;10.004;2023-03-29T04:56:29;6.30;;;5.23;;
1577;SDS011;57623;53.608;10.004;2023-03-29T04:58:57;8.00;;;4.87;;
1577;SDS011;57623;53.608;10.004;2023-03-29T05:01:26;5.70;;;5.20;;
1577;SDS011;57623;53.608;10.004;2023-03-29T05:03:55;5.77;;;5.27;;
1577;SDS011;57623;53.608;10.004;2023-03-29T05:06:23;6.50;;;5.40;;
1577;SDS011;57623;53.608;10.004;2023-03-29T05:08:51;7.20;;;5.87;;
1577;SDS011;57623;53.608;10.004;2023-03-29T05:11:19;7.03;;;6.13;;
1577;SDS011;57623;53.608;10.004;2023-03-29T05:13:50;8.33;;;7.30;;
1577;SDS011;57623;53.608;10.004;2023-03-29T05:16:18;7.57;;;6.87;;
1577;SDS011;57623;53.608;10.004;2023-03-29T05:18:47;7.80;;;6.10;;
1577;SDS011;57623;53.608;10.004;2023-03-29T05:21:16;7.90;;;6.50;;
1577;SDS011;57623;53.608;10.004;2023-03-29T05:23:45;9.57;;;7.17;;
1577;SDS011;57623;53.608;10.004;2023-03-29T05:26:14;8.10;;;6.53;;
1577;SDS011;57623;53.608;10.004;2023-03-29T05:28:41;10.40;;;7.43;;
1577;SDS011;57623;53.608;10.004;2023-03-29T05:31:10;8.20;;;7.10;;
1577;SDS011;57623;53.608;10.004;2023-03-29T05:33:42;9.10;;;7.70;;
1577;SDS011;57623;53.608;10.004;2023-03-29T05:36:12;8.20;;;7.33;;
1577;SDS011;57623;53.608;10.004;2023-03-29T05:38:41;8.60;;;7.60;;
1577;SDS011;57623;53.608;10.004;2023-03-29T05:41:12;9.17;;;8.27;;
1577;SDS011;57623;53.608;10.004;2023-03-29T05:43:40;10.40;;;7.90;;
1577;SDS011;57623;53.608;10.004;2023-03-29T05:46:09;10.30;;;7.63;;
1577;SDS011;57623;53.608;10.004;2023-03-29T05:48:37;10.07;;;8.10;;
1577;SDS011;57623;53.608;10.004;2023-03-29T05:51:06;9.20;;;7.70;;
1577;SDS011;57623;53.608;10.004;2023-03-29T05:53:36;9.83;;;8.80;;
1577;SDS011;57623;53.608;10.004;2023-03-29T05:56:04;12.50;;;8.50;;
1577;SDS011;57623;53.608;10.004;2023-03-29T05:58:34;10.17;;;8.60;;
1577;SDS011;57623;53.608;10.004;2023-03-29T06:01:03;9.13;;;8.20;;
1577;SDS011;57623;53.608;10.004;2023-03-29T06:03:36;9.83;;;8.93;;
1577;SDS011;57623;53.608;10.004;2023-03-29T06:06:05;11.97;;;8.83;;
1577;SDS011;57623;53.608;10.004;2023-03-29T06:08:36;10.97;;;9.10;;
1577;SDS011;57623;53.608;10.004;2023-03-29T06:11:04;10.00;;;9.00;;
1577;SDS011;57623;53.608;10.004;2023-03-29T06:13:34;11.00;;;8.80;;
1577;SDS011;57623;53.608;10.004;2023-03-29T06:16:04;12.43;;;9.03;;
1577;SDS011;57623;53.608;10.004;2023-03-29T06:18:33;10.70;;;9.60;;
1577;SDS011;57623;53.608;10.004;2023-03-29T06:21:01;11.60;;;9.60;;
1577;SDS011;57623;53.608;10.004;2023-03-29T06:23:30;11.10;;;10.10;;
1577;SDS011;57623;53.608;10.004;2023-03-29T06:25:59;9.53;;;8.63;;
1577;SDS011;57623;53.608;10.004;2023-03-29T06:28:27;10.83;;;9.30;;
1577;SDS011;57623;53.608;10.004;2023-03-29T06:30:56;10.47;;;9.03;;
1577;SDS011;57623;53.608;10.004;2023-03-29T06:33:29;10.40;;;9.40;;
1577;SDS011;57623;53.608;10.004;2023-03-29T06:35:57;11.20;;;10.10;;
1577;SDS011;57623;53.608;10.004;2023-03-29T06:38:25;11.60;;;9.60;;
1577;SDS011;57623;53.608;10.004;2023-03-29T06:41:00;11.13;;;9.50;;
1577;SDS011;57623;53.608;10.004;2023-03-29T06:43:29;10.60;;;9.60;;
1577;SDS011;57623;53.608;10.004;2023-03-29T06:45:58;12.30;;;10.87;;
1577;SDS011;57623;53.608;10.004;2023-03-29T06:48:27;10.33;;;9.27;;
1577;SDS011;57623;53.608;10.004;2023-03-29T06:50:55;12.97;;;10.30;;
1577;SDS011;57623;53.608;10.004;2023-03-29T06:53:23;14.50;;;9.60;;
1577;SDS011;57623;53.608;10.004;2023-03-29T06:55:53;11.00;;;9.90;;
1577;SDS011;57623;53.608;10.004;2023-03-29T06:58:22;10.30;;;9.30;;
1577;SDS011;57623;53.608;10.004;2023-03-29T07:00:53;13.20;;;8.97;;
1577;SDS011;57623;53.608;10.004;2023-03-29T07:03:27;11.27;;;9.47;;
1577;SDS011;57623;53.608;10.004;2023-03-29T07:05:58;12.23;;;9.47;;
1577;SDS011;57623;53.608;10.004;2023-03-29T07:08:28;9.70;;;8.70;;
1577;SDS011;57623;53.608;10.004;2023-03-29T07:10:57;12.23;;;8.67;;
1577;SDS011;57623;53.608;10.004;2023-03-29T07:13:28;11.90;;;9.37;;
1577;SDS011;57623;53.608;10.004;2023-03-29T07:15:58;10.40;;;9.10;;
1577;SDS011;57623;53.608;10.004;2023-03-29T07:18:26;9.17;;;8.20;;
1577;SDS011;57623;53.608;10.004;2023-03-29T07:20:54;12.97;;;8.60;;
1577;SDS011;57623;53.608;10.004;2023-03-29T07:23:22;9.37;;;8.57;;
1577;SDS011;57623;53.608;10.004;2023-03-29T07:25:50;9.47;;;8.37;;
1577;SDS011;57623;53.608;10.004;2023-03-29T07:28:19;9.67;;;8.40;;
1577;SDS011;57623;53.608;10.004;2023-03-29T07:30:48;9.87;;;7.70;;
1577;SDS011;57623;53.608;10.004;2023-03-29T07:33:16;8.93;;;7.93;;
1577;SDS011;57623;53.608;10.004;2023-03-29T07:35:45;8.17;;;7.37;;
1577;SDS011;57623;53.608;10.004;2023-03-29T07:38:13;9.77;;;7.40;;
1577;SDS011;57623;53.608;10.004;2023-03-29T07:40:41;9.57;;;8.00;;
1577;SDS011;57623;53.608;10.004;2023-03-29T07:43:09;8.77;;;7.80;;
1577;SDS011;57623;53.608;10.004;2023-03-29T07:45:37;8.63;;;7.57;;
1577;SDS011;57623;53.608;10.004;2023-03-29T07:48:09;8.50;;;7.30;;
1577;SDS011;57623;53.608;10.004;2023-03-29T07:50:37;8.50;;;7.60;;
1577;SDS011;57623;53.608;10.004;2023-03-29T07:53:05;8.90;;;7.23;;
1577;SDS011;57623;53.608;10.004;2023-03-29T07:55:34;8.07;;;7.10;;
1577;SDS011;57623;53.608;10.004;2023-03-29T07:58:03;8.77;;;6.97;;
1577;SDS011;57623;53.608;10.004;2023-03-29T08:00:31;11.93;;;7.13;;
1577;SDS011;57623;53.608;10.004;2023-03-29T08:02:59;8.87;;;7.43;;
1577;SDS011;57623;53.608;10.004;2023-03-29T08:05:30;7.87;;;7.03;;
1577;SDS011;57623;53.608;10.004;2023-03-29T08:08:06;11.03;;;7.93;;
1577;SDS011;57623;53.608;10.004;2023-03-29T08:10:35;8.10;;;7.30;;
1577;SDS011;57623;53.608;10.004;2023-03-29T08:13:05;8.00;;;7.20;;
1577;SDS011;57623;53.608;10.004;2023-03-29T08:15:35;7.70;;;7.00;;
1577;SDS011;57623;53.608;10.004;2023-03-29T08:18:04;9.40;;;7.77;;
1577;SDS011;57623;53.608;10.004;2023-03-29T08:20:34;8.97;;;8.07;;
1577;SDS011;57623;53.608;10.004;2023-03-29T08:23:02;11.77;;;7.67;;
1577;SDS011;57623;53.608;10.004;2023-03-29T08:25:31;7.97;;;7.20;;
1577;SDS011;57623;53.608;10.004;2023-03-29T08:28:00;8.20;;;7.27;;
1577;SDS011;57623;53.608;10.004;2023-03-29T08:30:28;8.37;;;7.17;;
1577;SDS011;57623;53.608;10.004;2023-03-29T08:32:56;8.90;;;7.30;;
1577;SDS011;57623;53.608;10.004;2023-03-29T08:35:24;6.73;;;6.13;;
1577;SDS011;57623;53.608;10.004;2023-03-29T08:37:54;11.13;;;7.03;;
1577;SDS011;57623;53.608;10.004;2023-03-29T08:40:23;8.70;;;7.27;;
1577;SDS011;57623;53.608;10.004;2023-03-29T08:42:59;7.00;;;6.40;;
1577;SDS011;57623;53.608;10.004;2023-03-29T08:45:40;7.00;;;6.33;;
1577;SDS011;57623;53.608;10.004;2023-03-29T08:48:18;6.17;;;5.57;;
1577;SDS011;57623;53.608;10.004;2023-03-29T08:50:55;6.77;;;6.07;;
1577;SDS011;57623;53.608;10.004;2023-03-29T08:53:29;6.77;;;6.13;;
1577;SDS011;57623;53.608;10.004;2023-03-29T08:56:02;7.50;;;6.00;;
1577;SDS011;57623;53.608;10.004;2023-03-29T08:58:34;7.03;;;6.33;;
1577;SDS011;57623;53.608;10.004;2023-03-29T09:01:04;7.60;;;5.97;;
1577;SDS011;57623;53.608;10.004;2023-03-29T09:03:34;7.27;;;6.23;;
1577;SDS011;57623;53.608;10.004;2023-03-29T09:06:07;7.10;;;6.10;;
1577;SDS011;57623;53.608;10.004;2023-03-29T09:08:39;6.90;;;5.90;;
1577;SDS011;57623;53.608;10.004;2023-03-29T09:11:14;10.97;;;5.83;;
1577;SDS011;57623;53.608;10.004;2023-03-29T09:13:53;5.87;;;5.37;;
1577;SDS011;57623;53.608;10.004;2023-03-29T09:16:35;7.33;;;6.63;;
1577;SDS011;57623;53.608;10.004;2023-03-29T09:19:12;7.60;;;6.03;;
1577;SDS011;57623;53.608;10.004;2023-03-29T09:21:53;7.87;;;6.17;;
1577;SDS011;57623;53.608;10.004;2023-03-29T09:24:30;6.63;;;5.93;;
1577;SDS011;57623;53.608;10.004;2023-03-29T09:27:08;8.33;;;6.23;;
1577;SDS011;57623;53.608;10.004;2023-03-29T09:29:43;7.20;;;5.93;;
1577;SDS011;57623;53.608;10.004;2023-03-29T09:32:19;7.63;;;5.63;;
1577;SDS011;57623;53.608;10.004;2023-03-29T09:34:51;8.50;;;6.40;;
1577;SDS011;57623;53.608;10.004;2023-03-29T09:37:27;6.80;;;6.20;;
1577;SDS011;57623;53.608;10.004;2023-03-29T09:40:00;8.07;;;5.77;;
1577;SDS011;57623;53.608;10.004;2023-03-29T09:42:36;7.37;;;5.73;;
1577;SDS011;57623;53.608;10.004;2023-03-29T09:45:06;7.03;;;6.33;;
1577;SDS011;57623;53.608;10.004;2023-03-29T09:47:35;6.57;;;6.00;;
1577;SDS011;57623;53.608;10.004;2023-03-29T09:50:09;8.10;;;5.90;;
1577;SDS011;57623;53.608;10.004;2023-03-29T09:52:56;6.80;;;6.20;;
1577;SDS011;57623;53.608;10.004;2023-03-29T09:55:27;6.63;;;5.93;;
1577;SDS011;57623;53.608;10.004;2023-03-29T09:57:57;8.03;;;6.00;;
1577;SDS011;57623;53.608;10.004;2023-03-29T10:00:28;6.87;;;6.20;;
1577;SDS011;57623;53.608;10.004;2023-03-29T10:02:56;7.10;;;6.40;;
1577;SDS011;57623;53.608;10.004;2023-03-29T10:05:25;7.13;;;6.27;;
1577;SDS011;57623;53.608;10.004;2023-03-29T10:07:58;8.60;;;6.40;;
1577;SDS011;57623;53.608;10.004;2023-03-29T10:10:29;6.60;;;5.70;;
1577;SDS011;57623;53.608;10.004;2023-03-29T10:13:00;6.70;;;6.10;;
1577;SDS011;57623;53.608;10.004;2023-03-29T10:15:32;6.97;;;6.30;;
1577;SDS011;57623;53.608;10.004;2023-03-29T10:18:00;7.13;;;5.83;;
1577;SDS011;57623;53.608;10.004;2023-03-29T10:20:33;8.43;;;6.40;;
1577;SDS011;57623;53.608;10.004;2023-03-29T10:23:03;6.93;;;6.10;;
1577;SDS011;57623;53.608;10.004;2023-03-29T10:25:36;11.17;;;6.73;;
1577;SDS011;57623;53.608;10.004;2023-03-29T10:28:10;8.13;;;6.70;;
1577;SDS011;57623;53.608;10.004;2023-03-29T10:30:43;8.80;;;6.73;;
1577;SDS011;57623;53.608;10.004;2023-03-29T10:33:14;6.43;;;5.80;;
1577;SDS011;57623;53.608;10.004;2023-03-29T10:35:45;7.83;;;7.03;;
1577;SDS011;57623;53.608;10.004;2023-03-29T10:38:15;7.93;;;6.87;;
1577;SDS011;57623;53.608;10.004;2023-03-29T10:40:47;7.93;;;7.17;;
1577;SDS011;57623;53.608;10.004;2023-03-29T10:43:20;6.83;;;6.17;;
1577;SDS011;57623;53.608;10.004;2023-03-29T10:45:50;7.23;;;6.53;;
1577;SDS011;57623;53.608;10.004;2023-03-29T10:48:22;7.20;;;6.23;;
1577;SDS011;57623;53.608;10.004;2023-03-29T10:50:51;8.03;;;7.23;;
1577;SDS011;57623;53.608;10.004;2023-03-29T10:53:21;7.90;;;7.10;;
1577;SDS011;57623;53.608;10.004;2023-03-29T10:55:54;7.83;;;7.03;;
1577;SDS011;57623;53.608;10.004;2023-03-29T10:58:35;7.10;;;6.40;;
1577;SDS011;57623;53.608;10.004;2023-03-29T11:01:13;8.53;;;6.67;;
1577;SDS011;57623;53.608;10.004;2023-03-29T11:03:54;7.83;;;7.10;;
1577;SDS011;57623;53.608;10.004;2023-03-29T11:06:38;7.43;;;6.83;;
1577;SDS011;57623;53.608;10.004;2023-03-29T11:09:12;8.00;;;7.30;;
1577;SDS011;57623;53.608;10.004;2023-03-29T11:11:54;8.97;;;8.17;;
1577;SDS011;57623;53.608;10.004;2023-03-29T11:14:43;9.03;;;7.50;;
1577;SDS011;57623;53.608;10.004;2023-03-29T11:17:23;12.07;;;7.60;;
1577;SDS011;57623;53.608;10.004;2023-03-29T11:20:09;8.83;;;7.93;;
1577;SDS011;57623;53.608;10.004;2023-03-29T11:22:47;8.43;;;7.70;;
1577;SDS011;57623;53.608;10.004;2023-03-29T11:25:22;8.50;;;7.60;;
1577;SDS011;57623;53.608;10.004;2023-03-29T11:28:00;8.90;;;7.50;;
1577;SDS011;57623;53.608;10.004;2023-03-29T11:30:34;9.60;;;7.70;;
1577;SDS011;57623;53.608;10.004;2023-03-29T11:33:10;8.20;;;7.37;;
1577;SDS011;57623;53.608;10.004;2023-03-29T11:35:47;10.23;;;8.13;;
1577;SDS011;57623;53.608;10.004;2023-03-29T11:38:22;8.70;;;8.00;;
1577;SDS011;57623;53.608;10.004;2023-03-29T11:40:57;9.57;;;8.43;;
1577;SDS011;57623;53.608;10.004;2023-03-29T11:43:32;10.30;;;8.23;;
1577;SDS011;57623;53.608;10.004;2023-03-29T11:46:05;8.93;;;7.63;;
1577;SDS011;57623;53.608;10.004;2023-03-29T11:48:39;9.60;;;8.00;;
1577;SDS011;57623;53.608;10.004;2023-03-29T11:51:13;9.00;;;7.93;;
1577;SDS011;57623;53.608;10.004;2023-03-29T11:53:49;9.60;;;8.60;;
1577;SDS011;57623;53.608;10.004;2023-03-29T11:56:24;12.13;;;8.30;;
1577;SDS011;57623;53.608;10.004;2023-03-29T11:58:58;10.43;;;8.33;;
1577;SDS011;57623;53.608;10.004;2023-03-29T12:01:32;9.20;;;8.30;;
1577;SDS011;57623;53.608;10.004;2023-03-29T12:04:04;9.80;;;8.73;;
1577;SDS011;57623;53.608;10.004;2023-03-29T12:06:38;8.77;;;7.97;;
1577;SDS011;57623;53.608;10.004;2023-03-29T12:09:16;9.70;;;8.70;;
1577;SDS011;57623;53.608;10.004;2023-03-29T12:11:53;9.77;;;8.77;;
1577;SDS011;57623;53.608;10.004;2023-03-29T12:14:31;10.13;;;9.03;;
1577;SDS011;57623;53.608;10.004;2023-03-29T12:17:12;9.93;;;8.93;;
1577;SDS011;57623;53.608;10.004;2023-03-29T12:19:45;9.30;;;8.40;;
1577;SDS011;57623;53.608;10.004;2023-03-29T12:22:20;10.00;;;9.00;;
1577;SDS011;57623;53.608;10.004;2023-03-29T12:24:49;10.10;;;9.10;;
1577;SDS011;57623;53.608;10.004;2023-03-29T12:27:21;10.53;;;9.43;;
1577;SDS011;57623;53.608;10.004;2023-03-29T12:30:00;10.37;;;9.27;;
1577;SDS011;57623;53.608;10.004;2023-03-29T12:33:07;10.57;;;9.67;;
1577;SDS011;57623;53.608;10.004;2023-03-29T12:35:50;10.30;;;9.30;;
1577;SDS011;57623;53.608;10.004;2023-03-29T12:38:31;10.80;;;9.83;;
1577;SDS011;57623;53.608;10.004;2023-03-29T12:41:00;16.50;;;11.07;;
1577;SDS011;57623;53.608;10.004;2023-03-29T12:43:36;11.50;;;10.40;;
1577;SDS011;57623;53.608;10.004;2023-03-29T12:46:08;10.67;;;9.67;;
1577;SDS011;57623;53.608;10.004;2023-03-29T12:48:40;10.50;;;9.50;;
1577;SDS011;57623;53.608;10.004;2023-03-29T12:51:11;11.63;;;10.43;;
1577;SDS011;57623;53.608;10.004;2023-03-29T12:53:41;10.83;;;9.83;;
1577;SDS011;57623;53.608;10.004;2023-03-29T12:56:13;11.13;;;10.13;;
1577;SDS011;57623;53.608;10.004;2023-03-29T12:58:49;10.50;;;9.57;;
1577;SDS011;57623;53.608;10.004;2023-03-29T13:01:22;11.37;;;10.30;;
1577;SDS011;57623;53.608;10.004;2023-03-29T13:06:54;11.37;;;10.37;;
1577;SDS011;57623;53.608;10.004;2023-03-29T13:09:29;11.93;;;10.50;;
1577;SDS011;57623;53.608;10.004;2023-03-29T13:12:05;10.70;;;9.70;;
1577;SDS011;57623;53.608;10.004;2023-03-29T13:14:40;12.87;;;10.27;;
1577;SDS011;57623;53.608;10.004;2023-03-29T13:17:18;11.00;;;10.10;;
1577;SDS011;57623;53.608;10.004;2023-03-29T13:19:52;12.13;;;10.93;;
1577;SDS011;57623;53.608;10.004;2023-03-29T13:22:43;10.50;;;9.60;;
1577;SDS011;57623;53.608;10.004;2023-03-29T13:25:24;9.40;;;8.60;;
1577;SDS011;57623;53.608;10.004;2023-03-29T13:28:09;11.03;;;10.03;;
1577;SDS011;57623;53.608;10.004;2023-03-29T13:30:44;10.67;;;9.77;;
1577;SDS011;57623;53.608;10.004;2023-03-29T13:33:23;10.13;;;9.10;;
1577;SDS011;57623;53.608;10.004;2023-03-29T13:36:21;10.70;;;9.70;;
1577;SDS011;57623;53.608;10.004;2023-03-29T13:39:01;10.00;;;9.10;;
1577;SDS011;57623;53.608;10.004;2023-03-29T13:41:42;10.27;;;9.30;;
1577;SDS011;57623;53.608;10.004;2023-03-29T13:44:22;10.23;;;9.37;;
1577;SDS011;57623;53.608;10.004;2023-03-29T13:47:09;10.47;;;9.47;;
1577;SDS011;57623;53.608;10.004;2023-03-29T13:49:51;10.83;;;9.83;;
1577;SDS011;57623;53.608;10.004;2023-03-29T13:52:23;10.13;;;9.33;;
1577;SDS011;57623;53.608;10.004;2023-03-29T13:54:56;10.57;;;9.57;;
1577;SDS011;57623;53.608;10.004;2023-03-29T13:57:30;9.90;;;9.10;;
1577;SDS011;57623;53.608;10.004;2023-03-29T14:00:03;10.67;;;9.73;;
1577;SDS011;57623;53.608;10.004;2023-03-29T14:02:39;10.17;;;9.27;;
1577;SDS011;57623;53.608;10.004;2023-03-29T14:05:14;10.30;;;9.40;;
1577;SDS011;57623;53.608;10.004;2023-03-29T14:07:46;9.90;;;9.00;;
1577;SDS011;57623;53.608;10.004;2023-03-29T14:10:17;10.00;;;9.20;;
1577;SDS011;57623;53.608;10.004;2023-03-29T14:12:47;10.20;;;9.20;;
1577;SDS011;57623;53.608;10.004;2023-03-29T14:15:21;10.20;;;9.30;;
1577;SDS011;57623;53.608;10.004;2023-03-29T14:17:56;10.27;;;9.40;;
1577;SDS011;57623;53.608;10.004;2023-03-29T14:20:27;10.60;;;9.70;;
1577;SDS011;57623;53.608;10.004;2023-03-29T14:22:57;10.73;;;9.83;;
1577;SDS011;57623;53.608;10.004;2023-03-29T14:25:26;10.60;;;9.63;;
1577;SDS011;57623;53.608;10.004;2023-03-29T14:27:55;10.97;;;9.87;;
1577;SDS011;57623;53.608;10.004;2023-03-29T14:30:24;10.73;;;9.73;;
1577;SDS011;57623;53.608;10.004;2023-03-29T14:32:54;11.20;;;10.10;;
1577;SDS011;57623;53.608;10.004;2023-03-29T14:35:26;10.47;;;9.57;;
1577;SDS011;57623;53.608;10.004;2023-03-29T14:37:58;10.53;;;9.63;;
1577;SDS011;57623;53.608;10.004;2023-03-29T14:40:28;10.23;;;9.43;;
1577;SDS011;57623;53.608;10.004;2023-03-29T14:42:58;10.77;;;9.67;;
1577;SDS011;57623;53.608;10.004;2023-03-29T14:45:30;9.87;;;8.97;;
1577;SDS011;57623;53.608;10.004;2023-03-29T14:47:58;9.53;;;8.63;;
1577;SDS011;57623;53.608;10.004;2023-03-29T14:50:28;10.53;;;9.63;;
1577;SDS011;57623;53.608;10.004;2023-03-29T14:52:57;9.67;;;8.87;;
1577;SDS011;57623;53.608;10.004;2023-03-29T14:55:26;10.50;;;9.50;;
1577;SDS011;57623;53.608;10.004;2023-03-29T14:57:56;10.47;;;9.47;;
1577;SDS011;57623;53.608;10.004;2023-03-29T15:00:26;9.60;;;8.70;;
1577;SDS011;57623;53.608;10.004;2023-03-29T15:02:56;10.43;;;9.43;;
1577;SDS011;57623;53.608;10.004;2023-03-29T15:05:34;10.30;;;9.40;;
1577;SDS011;57623;53.608;10.004;2023-03-29T15:08:05;10.40;;;9.40;;
1577;SDS011;57623;53.608;10.004;2023-03-29T15:10:35;9.87;;;8.97;;
1577;SDS011;57623;53.608;10.004;2023-03-29T15:13:12;11.10;;;10.00;;